Spalding, Missouri
Current Conditions -  °F | °C
As of 8:11 PM on Saturday 22 Nov 2014 (Local Time) from KUIN Reporting Station
Broken Clouds Broken Clouds  
Wind Chill: 53°   Ceiling: 1600
Heat Index: 53°   Visibility: 10mi
Dew Point: 48°   Wind: 15mph
Humidity: 83%   Direction: 180°S
Pressure: 29.84"   Gusts: 24mph
Location:  39.7145°N, 91.4209°W
Report Text: KUIN 230211Z AUTO 18013G21KT 10SM BKN016 BKN070 12/09 A2984 RMK AO2 T01170089
Loading
Personal Weather Stations






























Interactive Weather Map New forecast layout! Learn more

10-Day Weather Forecast

Advertisements
Track Severe Weather on mobile